This is the latest recevied weather packets stored in our database for station/object K5GTX. If no packets are shown the sender has not sent any weather packets the latest 1 day(s).
| Time | Temp. | Humidity | Pressure | Rain* | Wind** | Luminosity | Snow |
|---|---|---|---|---|---|---|---|
| 1778091974 | 13.33° C | 99% | 1020.3 hPa | 0 mm | - | 201 W/m² | - |
| 1778091369 | 13.33° C | 99% | 1019.9 hPa | 0 mm | - | 285 W/m² | - |
| 1778090459 | 12.78° C | 99% | 1020.5 hPa | 0 mm | - | 254 W/m² | - |
| 1778090155 | 12.78° C | 99% | 1020.9 hPa | 0 mm | - | 148 W/m² | - |
| 1778089246 | 12.22° C | 99% | 1020.9 hPa | 0 mm | - | 142 W/m² | - |
| 1778088034 | 12.22° C | 99% | 1020.8 hPa | 0 mm | - | 133 W/m² | - |
| 1778087429 | 12.22° C | 99% | 1021.2 hPa | 0 mm | - | 70 W/m² | - |
| 1778086212 | 11.67° C | 99% | 1021.7 hPa | 0 mm | - | 95 W/m² | - |
| 1778085909 | 11.67° C | 99% | 1021.6 hPa | 0 mm | - | 124 W/m² | - |
| 1778085607 | 11.67° C | 99% | 1021.9 hPa | 0 mm | - | 104 W/m² | - |
| 1778083484 | 11.67° C | 99% | 1020.5 hPa | 0 mm | - | 197 W/m² | - |
| 1778081463 | 11.67° C | 99% | 1023.3 hPa | 0 mm | - | 13 W/m² | - |
| 1778079040 | 12.22° C | 99% | 1021.5 hPa | 0 mm | - | 48 W/m² | - |
| 1778078434 | 12.22° C | 99% | 1021.7 hPa | 0 mm | - | 66 W/m² | - |
| 1778077830 | 12.22° C | 99% | 1021.8 hPa | 0 mm | - | 35 W/m² | - |
| 1778077225 | 12.22° C | 99% | 1021.2 hPa | 0 mm | - | 57 W/m² | - |
| 1778076621 | 12.22° C | 99% | 1021.2 hPa | 0 mm | - | 44 W/m² | - |
| 1778076318 | 12.22° C | 99% | 1020.8 hPa | 0 mm | - | 45 W/m² | - |
| 1778075712 | 11.67° C | 99% | 1020.6 hPa | 0 mm | - | 38 W/m² | - |
| 1778073589 | 11.67° C | 99% | 1019.9 hPa | 0 mm | - | 22 W/m² | - |
| 1778072377 | 11.67° C | 99% | 1019.9 hPa | 0 mm | - | 20 W/m² | - |
| 1778071773 | 11.67° C | 99% | 1019.9 hPa | 0 mm | - | 12 W/m² | - |
| 1778071470 | 11.67° C | 99% | 1019.9 hPa | 0 mm | - | 11 W/m² | - |
| 1778071168 | 11.67° C | 99% | 1019.7 hPa | 0 mm | - | 12 W/m² | - |
| 1778070866 | 11.67° C | 99% | 1019.9 hPa | 0 mm | - | 9 W/m² | - |
* Rain latest hour (hover to see other rain measurements)
** Current wind speed in m/s (hover to see current wind gust speed)